sensor_id;sensor_type;location;lat;lon;timestamp;P1;durP1;ratioP1;P2;durP2;ratioP2
313;SDS011;143;51.634;7.112;2023-03-11T00:00:37;5.28;;;2.83;;
313;SDS011;143;51.634;7.112;2023-03-11T00:03:05;4.43;;;2.78;;
313;SDS011;143;51.634;7.112;2023-03-11T00:05:33;5.80;;;3.35;;
313;SDS011;143;51.634;7.112;2023-03-11T00:08:00;3.50;;;3.10;;
313;SDS011;143;51.634;7.112;2023-03-11T00:10:30;3.87;;;2.70;;
313;SDS011;143;51.634;7.112;2023-03-11T00:12:58;4.18;;;2.53;;
313;SDS011;143;51.634;7.112;2023-03-11T00:15:24;4.38;;;2.75;;
313;SDS011;143;51.634;7.112;2023-03-11T00:17:50;4.18;;;3.28;;
313;SDS011;143;51.634;7.112;2023-03-11T00:20:21;5.03;;;3.00;;
313;SDS011;143;51.634;7.112;2023-03-11T00:22:51;2.70;;;2.60;;
313;SDS011;143;51.634;7.112;2023-03-11T00:25:18;6.97;;;2.75;;
313;SDS011;143;51.634;7.112;2023-03-11T00:27:45;3.22;;;2.85;;
313;SDS011;143;51.634;7.112;2023-03-11T00:30:12;3.40;;;2.70;;
313;SDS011;143;51.634;7.112;2023-03-11T00:32:38;4.20;;;2.83;;
313;SDS011;143;51.634;7.112;2023-03-11T00:35:04;4.00;;;2.50;;
313;SDS011;143;51.634;7.112;2023-03-11T00:37:31;3.45;;;2.38;;
313;SDS011;143;51.634;7.112;2023-03-11T00:39:56;3.37;;;2.50;;
313;SDS011;143;51.634;7.112;2023-03-11T00:42:23;4.22;;;2.58;;
313;SDS011;143;51.634;7.112;2023-03-11T00:44:49;3.63;;;2.60;;
313;SDS011;143;51.634;7.112;2023-03-11T00:47:15;2.90;;;2.30;;
313;SDS011;143;51.634;7.112;2023-03-11T00:49:40;2.87;;;2.20;;
313;SDS011;143;51.634;7.112;2023-03-11T00:52:07;2.95;;;2.20;;
313;SDS011;143;51.634;7.112;2023-03-11T00:54:32;3.07;;;2.27;;
313;SDS011;143;51.634;7.112;2023-03-11T00:56:58;6.30;;;2.80;;
313;SDS011;143;51.634;7.112;2023-03-11T00:59:24;5.73;;;2.70;;
313;SDS011;143;51.634;7.112;2023-03-11T01:01:50;9.10;;;2.50;;
313;SDS011;143;51.634;7.112;2023-03-11T01:04:15;5.10;;;2.20;;
313;SDS011;143;51.634;7.112;2023-03-11T01:06:41;4.00;;;2.27;;
313;SDS011;143;51.634;7.112;2023-03-11T01:09:07;3.23;;;2.20;;
313;SDS011;143;51.634;7.112;2023-03-11T01:11:32;2.23;;;1.93;;
313;SDS011;143;51.634;7.112;2023-03-11T01:13:58;4.17;;;2.00;;
313;SDS011;143;51.634;7.112;2023-03-11T01:16:24;4.27;;;2.10;;
313;SDS011;143;51.634;7.112;2023-03-11T01:18:50;4.33;;;1.70;;
313;SDS011;143;51.634;7.112;2023-03-11T01:21:15;3.33;;;1.77;;
313;SDS011;143;51.634;7.112;2023-03-11T01:23:41;2.97;;;1.50;;
313;SDS011;143;51.634;7.112;2023-03-11T01:26:07;2.63;;;1.80;;
313;SDS011;143;51.634;7.112;2023-03-11T01:28:33;3.95;;;2.10;;
313;SDS011;143;51.634;7.112;2023-03-11T01:30:58;6.60;;;1.53;;
313;SDS011;143;51.634;7.112;2023-03-11T01:33:24;4.90;;;2.00;;
313;SDS011;143;51.634;7.112;2023-03-11T01:35:50;4.90;;;1.93;;
313;SDS011;143;51.634;7.112;2023-03-11T01:38:16;3.50;;;2.27;;
313;SDS011;143;51.634;7.112;2023-03-11T01:40:43;3.37;;;1.90;;
313;SDS011;143;51.634;7.112;2023-03-11T01:48:36;4.28;;;1.60;;
313;SDS011;143;51.634;7.112;2023-03-11T01:51:03;3.95;;;1.77;;
313;SDS011;143;51.634;7.112;2023-03-11T01:53:30;5.15;;;1.88;;
313;SDS011;143;51.634;7.112;2023-03-11T01:55:56;3.60;;;1.70;;
313;SDS011;143;51.634;7.112;2023-03-11T01:58:23;6.57;;;2.27;;
313;SDS011;143;51.634;7.112;2023-03-11T02:00:51;4.70;;;2.00;;
313;SDS011;143;51.634;7.112;2023-03-11T02:03:20;4.25;;;1.65;;
313;SDS011;143;51.634;7.112;2023-03-11T02:05:52;4.85;;;1.73;;
313;SDS011;143;51.634;7.112;2023-03-11T02:08:21;4.25;;;1.85;;
313;SDS011;143;51.634;7.112;2023-03-11T02:10:47;3.05;;;1.88;;
313;SDS011;143;51.634;7.112;2023-03-11T02:13:16;2.63;;;1.92;;
313;SDS011;143;51.634;7.112;2023-03-11T02:15:42;3.58;;;1.90;;
313;SDS011;143;51.634;7.112;2023-03-11T02:18:09;5.68;;;2.00;;
313;SDS011;143;51.634;7.112;2023-03-11T02:23:23;5.97;;;1.88;;
313;SDS011;143;51.634;7.112;2023-03-11T02:28:38;5.13;;;1.70;;
313;SDS011;143;51.634;7.112;2023-03-11T02:31:05;6.80;;;1.52;;
313;SDS011;143;51.634;7.112;2023-03-11T02:33:31;7.73;;;1.77;;
313;SDS011;143;51.634;7.112;2023-03-11T02:36:00;1.83;;;1.45;;
313;SDS011;143;51.634;7.112;2023-03-11T02:38:26;5.00;;;2.03;;
313;SDS011;143;51.634;7.112;2023-03-11T02:40:55;6.77;;;1.80;;
313;SDS011;143;51.634;7.112;2023-03-11T02:43:34;6.18;;;2.13;;
313;SDS011;143;51.634;7.112;2023-03-11T02:46:05;8.85;;;2.38;;
313;SDS011;143;51.634;7.112;2023-03-11T02:48:34;5.65;;;2.15;;
313;SDS011;143;51.634;7.112;2023-03-11T02:51:00;3.35;;;2.22;;
313;SDS011;143;51.634;7.112;2023-03-11T02:53:27;8.77;;;2.40;;
313;SDS011;143;51.634;7.112;2023-03-11T02:55:57;12.02;;;2.40;;
313;SDS011;143;51.634;7.112;2023-03-11T02:58:23;5.43;;;2.10;;
313;SDS011;143;51.634;7.112;2023-03-11T03:00:48;4.80;;;3.03;;
313;SDS011;143;51.634;7.112;2023-03-11T03:03:14;9.13;;;2.13;;
313;SDS011;143;51.634;7.112;2023-03-11T03:05:40;4.90;;;2.67;;
313;SDS011;143;51.634;7.112;2023-03-11T03:08:05;4.10;;;2.30;;
313;SDS011;143;51.634;7.112;2023-03-11T03:10:31;6.77;;;1.70;;
313;SDS011;143;51.634;7.112;2023-03-11T03:12:57;8.23;;;2.60;;
313;SDS011;143;51.634;7.112;2023-03-11T03:15:23;8.60;;;2.20;;
313;SDS011;143;51.634;7.112;2023-03-11T03:17:49;5.07;;;2.47;;
313;SDS011;143;51.634;7.112;2023-03-11T03:20:15;7.15;;;2.58;;
313;SDS011;143;51.634;7.112;2023-03-11T03:22:42;9.43;;;2.33;;
313;SDS011;143;51.634;7.112;2023-03-11T03:25:09;6.45;;;2.35;;
313;SDS011;143;51.634;7.112;2023-03-11T03:27:35;16.55;;;2.92;;
313;SDS011;143;51.634;7.112;2023-03-11T03:30:01;6.53;;;2.30;;
313;SDS011;143;51.634;7.112;2023-03-11T03:32:27;7.20;;;2.25;;
313;SDS011;143;51.634;7.112;2023-03-11T03:34:53;7.13;;;2.83;;
313;SDS011;143;51.634;7.112;2023-03-11T03:37:23;6.80;;;2.60;;
313;SDS011;143;51.634;7.112;2023-03-11T03:39:52;8.30;;;2.25;;
313;SDS011;143;51.634;7.112;2023-03-11T03:42:18;10.43;;;2.63;;
313;SDS011;143;51.634;7.112;2023-03-11T03:44:44;6.93;;;2.40;;
313;SDS011;143;51.634;7.112;2023-03-11T03:47:10;5.63;;;2.07;;
313;SDS011;143;51.634;7.112;2023-03-11T03:49:36;9.07;;;2.33;;
313;SDS011;143;51.634;7.112;2023-03-11T03:52:03;4.00;;;2.53;;
313;SDS011;143;51.634;7.112;2023-03-11T03:54:30;22.88;;;2.50;;
313;SDS011;143;51.634;7.112;2023-03-11T03:56:57;12.80;;;2.67;;
313;SDS011;143;51.634;7.112;2023-03-11T03:59:23;11.55;;;2.15;;
313;SDS011;143;51.634;7.112;2023-03-11T04:01:48;4.40;;;2.20;;
313;SDS011;143;51.634;7.112;2023-03-11T04:04:14;4.73;;;2.00;;
313;SDS011;143;51.634;7.112;2023-03-11T04:06:40;9.03;;;3.13;;
313;SDS011;143;51.634;7.112;2023-03-11T04:09:07;7.90;;;2.63;;
313;SDS011;143;51.634;7.112;2023-03-11T04:11:35;6.57;;;2.60;;
313;SDS011;143;51.634;7.112;2023-03-11T04:14:01;4.53;;;2.30;;
313;SDS011;143;51.634;7.112;2023-03-11T04:16:27;5.90;;;2.35;;
313;SDS011;143;51.634;7.112;2023-03-11T04:18:53;10.17;;;2.17;;
313;SDS011;143;51.634;7.112;2023-03-11T04:21:18;7.17;;;2.70;;
313;SDS011;143;51.634;7.112;2023-03-11T04:23:44;3.20;;;1.80;;
313;SDS011;143;51.634;7.112;2023-03-11T04:26:10;12.07;;;2.17;;
313;SDS011;143;51.634;7.112;2023-03-11T04:28:36;12.50;;;2.57;;
313;SDS011;143;51.634;7.112;2023-03-11T04:31:02;6.97;;;2.47;;
313;SDS011;143;51.634;7.112;2023-03-11T04:33:27;9.23;;;2.80;;
313;SDS011;143;51.634;7.112;2023-03-11T04:35:53;7.97;;;2.20;;
313;SDS011;143;51.634;7.112;2023-03-11T04:38:19;6.90;;;2.10;;
313;SDS011;143;51.634;7.112;2023-03-11T04:40:44;8.90;;;2.30;;
313;SDS011;143;51.634;7.112;2023-03-11T04:43:10;6.63;;;2.23;;
313;SDS011;143;51.634;7.112;2023-03-11T04:45:39;16.90;;;3.03;;
313;SDS011;143;51.634;7.112;2023-03-11T04:48:06;4.65;;;2.20;;
313;SDS011;143;51.634;7.112;2023-03-11T04:50:32;5.30;;;2.17;;
313;SDS011;143;51.634;7.112;2023-03-11T04:52:58;10.55;;;3.10;;
313;SDS011;143;51.634;7.112;2023-03-11T04:55:24;14.10;;;3.53;;
313;SDS011;143;51.634;7.112;2023-03-11T04:57:50;8.27;;;2.77;;
313;SDS011;143;51.634;7.112;2023-03-11T05:00:15;6.30;;;2.17;;
313;SDS011;143;51.634;7.112;2023-03-11T05:02:46;12.60;;;2.80;;
313;SDS011;143;51.634;7.112;2023-03-11T05:05:11;7.23;;;2.57;;
313;SDS011;143;51.634;7.112;2023-03-11T05:07:37;8.27;;;2.20;;
313;SDS011;143;51.634;7.112;2023-03-11T05:10:03;9.70;;;2.40;;
313;SDS011;143;51.634;7.112;2023-03-11T05:12:30;7.10;;;2.33;;
313;SDS011;143;51.634;7.112;2023-03-11T05:14:55;4.07;;;1.90;;
313;SDS011;143;51.634;7.112;2023-03-11T05:17:21;6.83;;;1.90;;
313;SDS011;143;51.634;7.112;2023-03-11T05:19:48;7.70;;;2.28;;
313;SDS011;143;51.634;7.112;2023-03-11T05:22:15;7.75;;;2.45;;
313;SDS011;143;51.634;7.112;2023-03-11T05:24:40;9.43;;;2.47;;
313;SDS011;143;51.634;7.112;2023-03-11T05:27:06;8.80;;;2.30;;
313;SDS011;143;51.634;7.112;2023-03-11T05:29:32;11.73;;;2.30;;
313;SDS011;143;51.634;7.112;2023-03-11T05:31:57;12.87;;;2.43;;
313;SDS011;143;51.634;7.112;2023-03-11T05:34:23;11.33;;;2.70;;
313;SDS011;143;51.634;7.112;2023-03-11T05:36:49;9.83;;;1.93;;
313;SDS011;143;51.634;7.112;2023-03-11T05:39:14;9.17;;;2.40;;
313;SDS011;143;51.634;7.112;2023-03-11T05:41:40;3.30;;;2.17;;
313;SDS011;143;51.634;7.112;2023-03-11T05:44:07;6.65;;;2.30;;
313;SDS011;143;51.634;7.112;2023-03-11T05:46:32;8.83;;;1.80;;
313;SDS011;143;51.634;7.112;2023-03-11T05:48:58;8.53;;;2.37;;
313;SDS011;143;51.634;7.112;2023-03-11T05:51:24;8.45;;;2.40;;
313;SDS011;143;51.634;7.112;2023-03-11T05:53:50;6.37;;;2.10;;
313;SDS011;143;51.634;7.112;2023-03-11T05:56:17;6.73;;;2.50;;
313;SDS011;143;51.634;7.112;2023-03-11T05:58:43;9.13;;;2.20;;
313;SDS011;143;51.634;7.112;2023-03-11T06:01:10;4.20;;;2.07;;
313;SDS011;143;51.634;7.112;2023-03-11T06:03:37;9.00;;;1.85;;
313;SDS011;143;51.634;7.112;2023-03-11T06:06:04;6.88;;;2.70;;
313;SDS011;143;51.634;7.112;2023-03-11T06:08:31;4.35;;;1.65;;
313;SDS011;143;51.634;7.112;2023-03-11T06:11:02;4.80;;;2.00;;
313;SDS011;143;51.634;7.112;2023-03-11T06:13:33;7.85;;;2.05;;
313;SDS011;143;51.634;7.112;2023-03-11T06:15:59;4.80;;;2.25;;
313;SDS011;143;51.634;7.112;2023-03-11T06:18:25;5.13;;;2.40;;
313;SDS011;143;51.634;7.112;2023-03-11T06:20:52;5.00;;;2.10;;
313;SDS011;143;51.634;7.112;2023-03-11T06:23:18;9.85;;;2.40;;
313;SDS011;143;51.634;7.112;2023-03-11T06:25:44;4.65;;;2.00;;
313;SDS011;143;51.634;7.112;2023-03-11T06:28:19;9.80;;;3.15;;
313;SDS011;143;51.634;7.112;2023-03-11T06:30:44;8.30;;;2.20;;
313;SDS011;143;51.634;7.112;2023-03-11T06:33:10;6.73;;;2.20;;
313;SDS011;143;51.634;7.112;2023-03-11T06:35:35;16.77;;;2.33;;
313;SDS011;143;51.634;7.112;2023-03-11T06:38:01;8.83;;;2.33;;
313;SDS011;143;51.634;7.112;2023-03-11T06:40:27;4.07;;;2.10;;
313;SDS011;143;51.634;7.112;2023-03-11T06:42:52;4.73;;;2.20;;
313;SDS011;143;51.634;7.112;2023-03-11T06:45:18;6.10;;;2.33;;
313;SDS011;143;51.634;7.112;2023-03-11T06:47:44;9.73;;;2.57;;
313;SDS011;143;51.634;7.112;2023-03-11T06:50:09;7.80;;;3.43;;
313;SDS011;143;51.634;7.112;2023-03-11T06:52:35;5.23;;;2.20;;
313;SDS011;143;51.634;7.112;2023-03-11T06:55:01;7.17;;;2.30;;
313;SDS011;143;51.634;7.112;2023-03-11T06:57:28;9.93;;;2.92;;
313;SDS011;143;51.634;7.112;2023-03-11T06:59:55;11.18;;;3.15;;
313;SDS011;143;51.634;7.112;2023-03-11T07:02:20;8.07;;;2.73;;
313;SDS011;143;51.634;7.112;2023-03-11T07:04:49;5.57;;;2.03;;
313;SDS011;143;51.634;7.112;2023-03-11T07:07:15;6.25;;;2.25;;
313;SDS011;143;51.634;7.112;2023-03-11T07:09:41;11.17;;;2.70;;
313;SDS011;143;51.634;7.112;2023-03-11T07:12:07;6.77;;;2.60;;
313;SDS011;143;51.634;7.112;2023-03-11T07:14:33;7.20;;;2.50;;
313;SDS011;143;51.634;7.112;2023-03-11T07:16:59;8.20;;;2.77;;
313;SDS011;143;51.634;7.112;2023-03-11T07:19:24;6.87;;;2.67;;
313;SDS011;143;51.634;7.112;2023-03-11T07:21:50;18.10;;;2.60;;
313;SDS011;143;51.634;7.112;2023-03-11T07:24:16;5.30;;;2.57;;
313;SDS011;143;51.634;7.112;2023-03-11T07:26:41;12.73;;;2.33;;
313;SDS011;143;51.634;7.112;2023-03-11T07:29:07;10.20;;;1.93;;
313;SDS011;143;51.634;7.112;2023-03-11T07:31:34;12.75;;;2.95;;
313;SDS011;143;51.634;7.112;2023-03-11T07:34:02;4.22;;;1.90;;
313;SDS011;143;51.634;7.112;2023-03-11T07:36:30;11.75;;;2.35;;
313;SDS011;143;51.634;7.112;2023-03-11T07:38:57;7.18;;;2.50;;
313;SDS011;143;51.634;7.112;2023-03-11T07:41:26;11.05;;;2.25;;
313;SDS011;143;51.634;7.112;2023-03-11T07:43:53;3.53;;;1.88;;
313;SDS011;143;51.634;7.112;2023-03-11T07:46:20;6.88;;;1.92;;
313;SDS011;143;51.634;7.112;2023-03-11T07:48:47;11.38;;;2.03;;
313;SDS011;143;51.634;7.112;2023-03-11T07:51:18;8.05;;;2.65;;
313;SDS011;143;51.634;7.112;2023-03-11T07:53:48;5.90;;;1.65;;
313;SDS011;143;51.634;7.112;2023-03-11T07:56:16;7.25;;;2.20;;
313;SDS011;143;51.634;7.112;2023-03-11T07:58:42;5.05;;;1.73;;
313;SDS011;143;51.634;7.112;2023-03-11T08:01:12;11.55;;;1.98;;
313;SDS011;143;51.634;7.112;2023-03-11T08:03:43;4.32;;;2.20;;
313;SDS011;143;51.634;7.112;2023-03-11T08:06:13;7.28;;;1.75;;
313;SDS011;143;51.634;7.112;2023-03-11T08:08:46;8.07;;;2.10;;
313;SDS011;143;51.634;7.112;2023-03-11T08:11:13;5.80;;;1.85;;
313;SDS011;143;51.634;7.112;2023-03-11T08:13:40;9.82;;;2.13;;
313;SDS011;143;51.634;7.112;2023-03-11T08:16:07;6.07;;;2.40;;
313;SDS011;143;51.634;7.112;2023-03-11T08:18:34;7.32;;;1.70;;
313;SDS011;143;51.634;7.112;2023-03-11T08:21:07;4.03;;;1.70;;
313;SDS011;143;51.634;7.112;2023-03-11T08:23:35;5.53;;;1.80;;
313;SDS011;143;51.634;7.112;2023-03-11T08:26:02;4.60;;;1.83;;
313;SDS011;143;51.634;7.112;2023-03-11T08:28:36;4.47;;;1.70;;
313;SDS011;143;51.634;7.112;2023-03-11T08:31:02;3.17;;;1.70;;
313;SDS011;143;51.634;7.112;2023-03-11T08:33:35;9.82;;;1.77;;
313;SDS011;143;51.634;7.112;2023-03-11T08:36:01;3.97;;;1.53;;
313;SDS011;143;51.634;7.112;2023-03-11T08:38:27;7.30;;;1.63;;
313;SDS011;143;51.634;7.112;2023-03-11T08:40:52;7.33;;;1.87;;
313;SDS011;143;51.634;7.112;2023-03-11T08:43:18;13.23;;;2.53;;
313;SDS011;143;51.634;7.112;2023-03-11T08:45:44;8.23;;;2.67;;
313;SDS011;143;51.634;7.112;2023-03-11T08:48:10;5.40;;;1.87;;
313;SDS011;143;51.634;7.112;2023-03-11T08:50:39;5.68;;;2.40;;
313;SDS011;143;51.634;7.112;2023-03-11T08:53:05;5.05;;;2.10;;
313;SDS011;143;51.634;7.112;2023-03-11T08:55:31;11.30;;;2.33;;
313;SDS011;143;51.634;7.112;2023-03-11T08:57:56;3.90;;;1.50;;
313;SDS011;143;51.634;7.112;2023-03-11T09:00:22;6.53;;;1.97;;
313;SDS011;143;51.634;7.112;2023-03-11T09:02:48;3.77;;;1.50;;
313;SDS011;143;51.634;7.112;2023-03-11T09:05:15;3.17;;;1.50;;
313;SDS011;143;51.634;7.112;2023-03-11T09:07:40;3.50;;;1.70;;
313;SDS011;143;51.634;7.112;2023-03-11T09:10:06;4.20;;;2.03;;
313;SDS011;143;51.634;7.112;2023-03-11T09:12:33;8.50;;;1.70;;
313;SDS011;143;51.634;7.112;2023-03-11T09:15:00;2.43;;;1.37;;
313;SDS011;143;51.634;7.112;2023-03-11T09:17:26;3.53;;;1.60;;
313;SDS011;143;51.634;7.112;2023-03-11T09:19:51;5.60;;;1.60;;
313;SDS011;143;51.634;7.112;2023-03-11T09:22:17;4.43;;;1.30;;
313;SDS011;143;51.634;7.112;2023-03-11T09:24:43;5.07;;;1.40;;
313;SDS011;143;51.634;7.112;2023-03-11T09:27:08;10.20;;;1.73;;
313;SDS011;143;51.634;7.112;2023-03-11T09:29:35;4.97;;;1.70;;
313;SDS011;143;51.634;7.112;2023-03-11T09:32:00;3.20;;;1.40;;
313;SDS011;143;51.634;7.112;2023-03-11T09:34:26;12.63;;;1.57;;
313;SDS011;143;51.634;7.112;2023-03-11T09:36:52;8.13;;;1.50;;
313;SDS011;143;51.634;7.112;2023-03-11T09:39:17;3.43;;;1.63;;
313;SDS011;143;51.634;7.112;2023-03-11T09:44:18;7.13;;;2.50;;
313;SDS011;143;51.634;7.112;2023-03-11T09:52:23;7.20;;;1.27;;
313;SDS011;143;51.634;7.112;2023-03-11T09:55:02;6.00;;;1.23;;
313;SDS011;143;51.634;7.112;2023-03-11T09:57:33;4.03;;;0.90;;
313;SDS011;143;51.634;7.112;2023-03-11T10:00:04;5.43;;;1.23;;
313;SDS011;143;51.634;7.112;2023-03-11T10:02:30;1.57;;;1.00;;
313;SDS011;143;51.634;7.112;2023-03-11T10:05:02;5.90;;;1.00;;
313;SDS011;143;51.634;7.112;2023-03-11T10:07:35;5.40;;;2.20;;
313;SDS011;143;51.634;7.112;2023-03-11T10:10:06;5.07;;;1.40;;
313;SDS011;143;51.634;7.112;2023-03-11T10:21:17;5.63;;;1.10;;
313;SDS011;143;51.634;7.112;2023-03-11T10:24:06;4.77;;;1.37;;
313;SDS011;143;51.634;7.112;2023-03-11T10:26:45;3.93;;;1.47;;
313;SDS011;143;51.634;7.112;2023-03-11T10:34:54;4.50;;;1.30;;
313;SDS011;143;51.634;7.112;2023-03-11T10:37:36;1.73;;;1.00;;
313;SDS011;143;51.634;7.112;2023-03-11T10:40:28;5.27;;;1.30;;
313;SDS011;143;51.634;7.112;2023-03-11T10:43:26;8.93;;;1.37;;
313;SDS011;143;51.634;7.112;2023-03-11T10:46:43;3.73;;;1.30;;
313;SDS011;143;51.634;7.112;2023-03-11T10:49:01;5.90;;;1.97;;
313;SDS011;143;51.634;7.112;2023-03-11T10:51:31;4.70;;;1.20;;
313;SDS011;143;51.634;7.112;2023-03-11T10:54:00;6.40;;;2.33;;
313;SDS011;143;51.634;7.112;2023-03-11T10:56:31;1.70;;;0.73;;
313;SDS011;143;51.634;7.112;2023-03-11T10:59:03;4.73;;;1.33;;
313;SDS011;143;51.634;7.112;2023-03-11T11:01:30;3.73;;;1.30;;
313;SDS011;143;51.634;7.112;2023-03-11T11:03:57;4.30;;;1.13;;
313;SDS011;143;51.634;7.112;2023-03-11T11:06:29;5.93;;;1.10;;
313;SDS011;143;51.634;7.112;2023-03-11T11:12:31;4.40;;;1.33;;
313;SDS011;143;51.634;7.112;2023-03-11T11:14:50;3.53;;;1.33;;
313;SDS011;143;51.634;7.112;2023-03-11T11:17:23;6.10;;;1.10;;
313;SDS011;143;51.634;7.112;2023-03-11T11:19:53;3.10;;;1.30;;
313;SDS011;143;51.634;7.112;2023-03-11T11:22:22;4.93;;;1.00;;
313;SDS011;143;51.634;7.112;2023-03-11T11:24:48;9.33;;;1.10;;
313;SDS011;143;51.634;7.112;2023-03-11T11:29:46;4.77;;;1.07;;
313;SDS011;143;51.634;7.112;2023-03-11T11:32:28;8.33;;;1.30;;
313;SDS011;143;51.634;7.112;2023-03-11T11:34:56;4.07;;;1.37;;
313;SDS011;143;51.634;7.112;2023-03-11T11:37:32;5.90;;;1.47;;
313;SDS011;143;51.634;7.112;2023-03-11T11:40:05;2.40;;;0.90;;
313;SDS011;143;51.634;7.112;2023-03-11T11:42:45;3.67;;;1.10;;
313;SDS011;143;51.634;7.112;2023-03-11T11:45:27;2.80;;;0.97;;
313;SDS011;143;51.634;7.112;2023-03-11T11:51:07;3.00;;;1.07;;
313;SDS011;143;51.634;7.112;2023-03-11T11:53:43;5.20;;;1.20;;
313;SDS011;143;51.634;7.112;2023-03-11T11:56:25;4.87;;;1.03;;
313;SDS011;143;51.634;7.112;2023-03-11T11:58:51;6.33;;;1.70;;
313;SDS011;143;51.634;7.112;2023-03-11T12:01:39;2.80;;;1.00;;
313;SDS011;143;51.634;7.112;2023-03-11T12:06:53;7.90;;;1.10;;
313;SDS011;143;51.634;7.112;2023-03-11T12:09:28;4.20;;;1.20;;
313;SDS011;143;51.634;7.112;2023-03-11T12:17:38;6.30;;;1.00;;
313;SDS011;143;51.634;7.112;2023-03-11T12:28:13;8.50;;;1.10;;
313;SDS011;143;51.634;7.112;2023-03-11T12:31:00;5.13;;;1.10;;
313;SDS011;143;51.634;7.112;2023-03-11T12:33:31;10.30;;;2.70;;
313;SDS011;143;51.634;7.112;2023-03-11T12:36:01;3.67;;;1.20;;
313;SDS011;143;51.634;7.112;2023-03-11T12:38:40;4.60;;;1.00;;
313;SDS011;143;51.634;7.112;2023-03-11T12:46:05;3.17;;;1.23;;
313;SDS011;143;51.634;7.112;2023-03-11T12:48:32;4.10;;;0.80;;
313;SDS011;143;51.634;7.112;2023-03-11T12:54:19;2.43;;;0.90;;
313;SDS011;143;51.634;7.112;2023-03-11T12:57:00;5.50;;;1.27;;
313;SDS011;143;51.634;7.112;2023-03-11T13:02:55;3.77;;;1.17;;
313;SDS011;143;51.634;7.112;2023-03-11T13:05:39;4.40;;;1.00;;
313;SDS011;143;51.634;7.112;2023-03-11T13:11:00;2.20;;;1.00;;
313;SDS011;143;51.634;7.112;2023-03-11T13:13:48;4.40;;;1.13;;
313;SDS011;143;51.634;7.112;2023-03-11T13:18:40;8.13;;;0.97;;
313;SDS011;143;51.634;7.112;2023-03-11T13:23:51;3.27;;;1.17;;
313;SDS011;143;51.634;7.112;2023-03-11T13:26:42;2.80;;;1.20;;
313;SDS011;143;51.634;7.112;2023-03-11T13:35:05;3.30;;;1.03;;
313;SDS011;143;51.634;7.112;2023-03-11T13:40:44;2.67;;;0.90;;
313;SDS011;143;51.634;7.112;2023-03-11T13:45:57;4.67;;;1.30;;
313;SDS011;143;51.634;7.112;2023-03-11T13:48:41;3.73;;;0.80;;
313;SDS011;143;51.634;7.112;2023-03-11T13:51:15;8.60;;;0.90;;
313;SDS011;143;51.634;7.112;2023-03-11T13:54:07;5.67;;;1.80;;
313;SDS011;143;51.634;7.112;2023-03-11T13:56:57;5.60;;;1.10;;
313;SDS011;143;51.634;7.112;2023-03-11T13:59:26;2.80;;;1.10;;
313;SDS011;143;51.634;7.112;2023-03-11T14:02:00;1.37;;;0.80;;
313;SDS011;143;51.634;7.112;2023-03-11T14:04:56;2.27;;;0.93;;
313;SDS011;143;51.634;7.112;2023-03-11T14:07:31;2.13;;;1.10;;
313;SDS011;143;51.634;7.112;2023-03-11T14:12:39;9.90;;;1.40;;
313;SDS011;143;51.634;7.112;2023-03-11T14:15:08;4.70;;;0.80;;
313;SDS011;143;51.634;7.112;2023-03-11T14:17:41;3.37;;;1.00;;
313;SDS011;143;51.634;7.112;2023-03-11T14:20:14;19.73;;;1.67;;
313;SDS011;143;51.634;7.112;2023-03-11T14:22:52;3.33;;;1.00;;
313;SDS011;143;51.634;7.112;2023-03-11T14:25:26;3.47;;;0.97;;
313;SDS011;143;51.634;7.112;2023-03-11T14:27:57;8.43;;;1.13;;
313;SDS011;143;51.634;7.112;2023-03-11T14:30:26;6.20;;;1.27;;
313;SDS011;143;51.634;7.112;2023-03-11T14:32:54;2.97;;;0.90;;
313;SDS011;143;51.634;7.112;2023-03-11T14:35:48;2.87;;;1.10;;
313;SDS011;143;51.634;7.112;2023-03-11T14:38:40;3.10;;;0.93;;
313;SDS011;143;51.634;7.112;2023-03-11T14:41:06;1.40;;;1.10;;
313;SDS011;143;51.634;7.112;2023-03-11T14:43:39;4.03;;;1.23;;
313;SDS011;143;51.634;7.112;2023-03-11T14:46:09;2.90;;;1.00;;
313;SDS011;143;51.634;7.112;2023-03-11T14:48:43;4.43;;;0.90;;
313;SDS011;143;51.634;7.112;2023-03-11T14:51:15;7.13;;;1.20;;
313;SDS011;143;51.634;7.112;2023-03-11T14:53:44;2.13;;;0.97;;
313;SDS011;143;51.634;7.112;2023-03-11T14:56:20;6.83;;;1.10;;
313;SDS011;143;51.634;7.112;2023-03-11T14:58:54;4.83;;;1.50;;
313;SDS011;143;51.634;7.112;2023-03-11T15:01:28;3.80;;;1.10;;
313;SDS011;143;51.634;7.112;2023-03-11T15:04:00;5.30;;;1.20;;
313;SDS011;143;51.634;7.112;2023-03-11T15:06:41;2.50;;;0.90;;
313;SDS011;143;51.634;7.112;2023-03-11T15:09:14;6.73;;;1.07;;
313;SDS011;143;51.634;7.112;2023-03-11T15:11:52;3.33;;;1.00;;
313;SDS011;143;51.634;7.112;2023-03-11T15:14:25;10.83;;;1.37;;
313;SDS011;143;51.634;7.112;2023-03-11T15:16:53;9.20;;;1.70;;
313;SDS011;143;51.634;7.112;2023-03-11T15:21:51;3.50;;;1.50;;
313;SDS011;143;51.634;7.112;2023-03-11T15:24:22;9.17;;;1.10;;
313;SDS011;143;51.634;7.112;2023-03-11T15:26:54;3.23;;;1.20;;
313;SDS011;143;51.634;7.112;2023-03-11T15:29:26;3.10;;;1.10;;
313;SDS011;143;51.634;7.112;2023-03-11T15:31:53;3.37;;;1.30;;
313;SDS011;143;51.634;7.112;2023-03-11T15:34:23;4.10;;;1.03;;
313;SDS011;143;51.634;7.112;2023-03-11T15:39:39;8.50;;;1.63;;
313;SDS011;143;51.634;7.112;2023-03-11T15:42:12;6.43;;;1.60;;
313;SDS011;143;51.634;7.112;2023-03-11T15:44:42;4.10;;;1.43;;
313;SDS011;143;51.634;7.112;2023-03-11T15:47:15;4.00;;;1.10;;
313;SDS011;143;51.634;7.112;2023-03-11T15:49:42;2.47;;;1.10;;
313;SDS011;143;51.634;7.112;2023-03-11T15:52:08;1.63;;;1.00;;
313;SDS011;143;51.634;7.112;2023-03-11T15:54:34;4.83;;;1.17;;
313;SDS011;143;51.634;7.112;2023-03-11T15:57:00;5.47;;;1.80;;
313;SDS011;143;51.634;7.112;2023-03-11T15:59:30;2.90;;;1.63;;
313;SDS011;143;51.634;7.112;2023-03-11T16:01:57;3.30;;;1.50;;
313;SDS011;143;51.634;7.112;2023-03-11T16:04:23;3.67;;;1.07;;
313;SDS011;143;51.634;7.112;2023-03-11T16:06:49;3.57;;;1.57;;
313;SDS011;143;51.634;7.112;2023-03-11T16:09:16;2.07;;;1.10;;
313;SDS011;143;51.634;7.112;2023-03-11T16:11:41;4.07;;;1.17;;
313;SDS011;143;51.634;7.112;2023-03-11T16:14:18;2.30;;;1.33;;
313;SDS011;143;51.634;7.112;2023-03-11T16:16:45;1.20;;;1.00;;
313;SDS011;143;51.634;7.112;2023-03-11T16:19:11;4.80;;;1.10;;
313;SDS011;143;51.634;7.112;2023-03-11T16:21:42;3.60;;;0.93;;
313;SDS011;143;51.634;7.112;2023-03-11T16:24:18;2.63;;;1.00;;
313;SDS011;143;51.634;7.112;2023-03-11T16:26:46;6.50;;;1.50;;
313;SDS011;143;51.634;7.112;2023-03-11T16:29:13;2.40;;;1.10;;
313;SDS011;143;51.634;7.112;2023-03-11T16:31:39;6.40;;;1.30;;
313;SDS011;143;51.634;7.112;2023-03-11T16:34:05;3.77;;;1.17;;
313;SDS011;143;51.634;7.112;2023-03-11T16:36:31;5.43;;;1.43;;
313;SDS011;143;51.634;7.112;2023-03-11T16:38:56;3.33;;;1.33;;
313;SDS011;143;51.634;7.112;2023-03-11T16:41:22;2.93;;;1.23;;
313;SDS011;143;51.634;7.112;2023-03-11T16:43:48;4.37;;;1.30;;
313;SDS011;143;51.634;7.112;2023-03-11T16:46:13;2.73;;;0.93;;
313;SDS011;143;51.634;7.112;2023-03-11T16:48:39;3.70;;;1.40;;
313;SDS011;143;51.634;7.112;2023-03-11T16:51:05;6.97;;;1.17;;
313;SDS011;143;51.634;7.112;2023-03-11T16:53:30;2.13;;;0.90;;
313;SDS011;143;51.634;7.112;2023-03-11T16:55:56;3.50;;;1.30;;
313;SDS011;143;51.634;7.112;2023-03-11T16:58:22;5.27;;;1.80;;
313;SDS011;143;51.634;7.112;2023-03-11T17:00:48;3.77;;;1.60;;
313;SDS011;143;51.634;7.112;2023-03-11T17:03:15;5.50;;;1.10;;
313;SDS011;143;51.634;7.112;2023-03-11T17:05:48;9.60;;;1.43;;
313;SDS011;143;51.634;7.112;2023-03-11T17:08:14;2.80;;;1.07;;
313;SDS011;143;51.634;7.112;2023-03-11T17:10:42;2.53;;;1.17;;
313;SDS011;143;51.634;7.112;2023-03-11T17:13:09;4.80;;;1.80;;
313;SDS011;143;51.634;7.112;2023-03-11T17:15:38;4.57;;;1.60;;
313;SDS011;143;51.634;7.112;2023-03-11T17:18:06;7.30;;;1.40;;
313;SDS011;143;51.634;7.112;2023-03-11T17:20:32;3.77;;;1.50;;
313;SDS011;143;51.634;7.112;2023-03-11T17:22:58;2.30;;;1.40;;
313;SDS011;143;51.634;7.112;2023-03-11T17:25:25;2.20;;;1.00;;
313;SDS011;143;51.634;7.112;2023-03-11T17:27:50;3.20;;;1.17;;
313;SDS011;143;51.634;7.112;2023-03-11T17:30:16;3.70;;;1.10;;
313;SDS011;143;51.634;7.112;2023-03-11T17:32:44;5.53;;;1.53;;